createdAt,value
2023-03-11T00:00:39.860Z,100797.88
2023-03-11T00:03:08.851Z,100804.38
2023-03-11T00:05:38.274Z,100818.06
2023-03-11T00:08:06.155Z,100810.31
2023-03-11T00:10:36.490Z,100807.91
2023-03-11T00:13:04.720Z,100811.75
2023-03-11T00:15:32.031Z,100806.66
2023-03-11T00:17:59.366Z,100809.50
2023-03-11T00:20:28.989Z,100806.25
2023-03-11T00:22:56.177Z,100809.22
2023-03-11T00:25:24.762Z,100810.22
2023-03-11T00:27:51.417Z,100798.94
2023-03-11T00:30:19.860Z,100808.94
2023-03-11T00:32:51.673Z,100814.44
2023-03-11T00:35:23.385Z,100823.56
2023-03-11T00:37:54.102Z,100837.25
2023-03-11T00:40:23.155Z,100841.88
2023-03-11T00:42:49.659Z,100850.06
2023-03-11T00:45:16.726Z,100853.69
2023-03-11T00:47:43.550Z,100854.84
2023-03-11T00:50:15.498Z,100856.94
2023-03-11T00:52:42.030Z,100860.59
2023-03-11T00:55:10.529Z,100856.38
2023-03-11T00:57:37.066Z,100863.56
2023-03-11T01:00:04.617Z,100856.81
2023-03-11T01:02:31.232Z,100867.75
2023-03-11T01:04:57.753Z,100864.41
2023-03-11T01:07:24.261Z,100869.88
2023-03-11T01:09:50.780Z,100874.38
2023-03-11T01:12:17.344Z,100871.97
2023-03-11T01:14:44.032Z,100877.47
2023-03-11T01:17:10.714Z,100878.56
2023-03-11T01:19:37.240Z,100880.41
2023-03-11T01:22:04.002Z,100892.25
2023-03-11T01:24:30.565Z,100889.69
2023-03-11T01:26:57.144Z,100885.47
2023-03-11T01:29:23.631Z,100898.97
2023-03-11T01:31:50.161Z,100892.94
2023-03-11T01:34:16.834Z,100895.59
2023-03-11T01:36:43.356Z,100891.34
2023-03-11T01:39:09.914Z,100894.19
2023-03-11T01:41:36.514Z,100897.81
2023-03-11T01:44:04.894Z,100895.41
2023-03-11T01:46:37.373Z,100899.03
2023-03-11T01:49:05.945Z,100894.69
2023-03-11T01:51:36.992Z,100902.97
2023-03-11T01:54:25.723Z,100904.78
2023-03-11T01:56:53.331Z,100903.09
2023-03-11T01:59:24.496Z,100905.06
2023-03-11T02:01:58.725Z,100902.53
2023-03-11T02:04:26.074Z,100915.19
2023-03-11T02:06:54.157Z,100917.88
2023-03-11T02:09:22.336Z,100907.28
2023-03-11T02:11:48.872Z,100911.94
2023-03-11T02:14:15.552Z,100915.56
2023-03-11T02:16:42.053Z,100916.56
2023-03-11T02:19:24.141Z,100915.03
2023-03-11T02:21:51.478Z,100917.69
2023-03-11T02:24:45.287Z,100918.06
2023-03-11T02:27:13.977Z,100927.66
2023-03-11T02:29:42.041Z,100919.91
2023-03-11T02:32:10.276Z,100915.56
2023-03-11T02:34:38.992Z,100914.72
2023-03-11T02:37:08.901Z,100908.63
2023-03-11T02:39:38.630Z,100904.44
2023-03-11T02:42:14.217Z,100910.28
2023-03-11T02:44:43.676Z,100920.94
2023-03-11T02:47:10.695Z,100920.78
2023-03-11T02:49:37.956Z,100916.88
2023-03-11T02:52:05.029Z,100915.63
2023-03-11T02:54:31.670Z,100918.47
2023-03-11T02:56:58.290Z,100917.97
2023-03-11T02:59:24.827Z,100920.22
2023-03-11T03:01:51.297Z,100923.22
2023-03-11T03:04:17.905Z,100919.13
2023-03-11T03:06:44.416Z,100922.38
2023-03-11T03:09:10.933Z,100923.09
2023-03-11T03:11:37.498Z,100929.56
2023-03-11T03:14:04.010Z,100933.19
2023-03-11T03:16:30.618Z,100938.94
2023-03-11T03:18:57.258Z,100942.44
2023-03-11T03:21:23.834Z,100953.09
2023-03-11T03:23:50.328Z,100956.69
2023-03-11T03:26:16.847Z,100953.97
2023-03-11T03:28:43.440Z,100961.78
2023-03-11T03:31:11.002Z,100965.09
2023-03-11T03:33:37.953Z,100956.91
2023-03-11T03:36:09.849Z,100970.91
2023-03-11T03:38:36.397Z,100982.06
2023-03-11T03:41:03.044Z,100975.44
2023-03-11T03:43:29.584Z,100986.63
2023-03-11T03:46:06.186Z,100985.44
2023-03-11T03:48:32.955Z,100979.25
2023-03-11T03:51:08.428Z,100990.19
2023-03-11T03:53:36.093Z,100994.78
2023-03-11T03:56:08.538Z,101000.28
2023-03-11T03:58:35.070Z,101000.28
2023-03-11T04:01:02.162Z,101001.34
2023-03-11T04:03:29.056Z,101010.19
2023-03-11T04:06:06.245Z,101008.28
2023-03-11T04:08:32.804Z,101001.81
2023-03-11T04:10:59.345Z,101009.31
2023-03-11T04:13:25.850Z,101012.53
2023-03-11T04:15:52.391Z,101015.03
2023-03-11T04:18:18.947Z,101008.50
2023-03-11T04:20:46.477Z,101011.13
2023-03-11T04:23:12.991Z,101005.84
2023-03-11T04:25:39.525Z,101002.50
2023-03-11T04:28:06.072Z,101004.53
2023-03-11T04:30:32.663Z,101010.31
2023-03-11T04:32:59.213Z,101007.13
2023-03-11T04:35:25.749Z,101005.88
2023-03-11T04:37:52.285Z,101005.63
2023-03-11T04:40:18.880Z,101004.47
2023-03-11T04:42:45.508Z,101012.38
2023-03-11T04:45:12.190Z,101014.75
2023-03-11T04:47:38.889Z,101021.72
2023-03-11T04:50:06.042Z,101023.41
2023-03-11T04:52:32.524Z,101033.97
2023-03-11T04:54:59.029Z,101032.28
2023-03-11T04:57:25.507Z,101028.72
2023-03-11T04:59:51.978Z,101031.66
2023-03-11T05:02:18.534Z,101018.56
2023-03-11T05:04:45.411Z,101018.69
2023-03-11T05:07:11.942Z,101017.25
2023-03-11T05:09:38.826Z,101025.56
2023-03-11T05:12:06.212Z,101021.47
2023-03-11T05:14:32.848Z,101031.13
2023-03-11T05:16:59.377Z,101037.13
2023-03-11T05:19:32.289Z,101045.78
2023-03-11T05:21:59.138Z,101037.56
2023-03-11T05:24:26.211Z,101037.09
2023-03-11T05:26:52.723Z,101045.00
2023-03-11T05:29:19.493Z,101043.88
2023-03-11T05:31:47.069Z,101046.88
2023-03-11T05:34:14.322Z,101041.88
2023-03-11T05:36:40.884Z,101053.72
2023-03-11T05:39:07.661Z,101054.75
2023-03-11T05:41:34.241Z,101057.03
2023-03-11T05:44:00.761Z,101050.31
2023-03-11T05:46:27.358Z,101064.09
2023-03-11T05:48:54.071Z,101058.66
2023-03-11T05:51:20.843Z,101061.16
2023-03-11T05:53:48.760Z,101066.41
2023-03-11T05:56:16.767Z,101065.44
2023-03-11T05:58:43.666Z,101064.59
2023-03-11T06:01:15.686Z,101066.41
2023-03-11T06:03:43.089Z,101063.84
2023-03-11T06:06:12.343Z,101068.50
2023-03-11T06:08:39.332Z,101072.00
2023-03-11T06:11:08.434Z,101073.25
2023-03-11T06:13:35.987Z,101081.50
2023-03-11T06:16:02.613Z,101082.75
2023-03-11T06:18:29.134Z,101081.31
2023-03-11T06:20:58.575Z,101087.22
2023-03-11T06:23:25.490Z,101091.13
2023-03-11T06:26:02.768Z,101094.44
2023-03-11T06:28:30.149Z,101102.94
2023-03-11T06:30:58.741Z,101106.16
2023-03-11T06:33:25.808Z,101103.84
2023-03-11T06:35:59.771Z,101109.69
2023-03-11T06:38:27.194Z,101114.31
2023-03-11T06:40:53.823Z,101118.94
2023-03-11T06:43:22.181Z,101125.13
2023-03-11T06:45:48.772Z,101115.28
2023-03-11T06:48:15.378Z,101110.09
2023-03-11T06:50:41.866Z,101119.28
2023-03-11T06:53:08.394Z,101110.50
2023-03-11T06:55:35.636Z,101116.88
2023-03-11T06:58:02.573Z,101123.41
2023-03-11T07:00:31.123Z,101133.56
2023-03-11T07:02:57.969Z,101135.84
2023-03-11T07:05:24.488Z,101140.09
2023-03-11T07:07:54.504Z,101142.38
2023-03-11T07:10:21.105Z,101144.66
2023-03-11T07:12:47.632Z,101149.75
2023-03-11T07:15:14.356Z,101155.66
2023-03-11T07:17:40.886Z,101154.81
2023-03-11T07:20:08.043Z,101159.44
2023-03-11T07:22:34.537Z,101154.38
2023-03-11T07:25:01.077Z,101157.31
2023-03-11T07:27:28.185Z,101161.66
2023-03-11T07:29:54.703Z,101151.56
2023-03-11T07:32:21.260Z,101162.22
2023-03-11T07:34:47.884Z,101161.88
2023-03-11T07:37:14.447Z,101157.19
2023-03-11T07:39:41.018Z,101160.50
2023-03-11T07:42:07.709Z,101165.75
2023-03-11T07:44:34.288Z,101161.44
2023-03-11T07:47:06.010Z,101176.66
2023-03-11T07:49:32.708Z,101174.31
2023-03-11T07:51:59.207Z,101178.97
2023-03-11T07:54:25.782Z,101178.31
2023-03-11T07:56:52.299Z,101184.94
2023-03-11T07:59:18.827Z,101184.28
2023-03-11T08:01:47.245Z,101190.91
2023-03-11T08:04:16.856Z,101184.19
2023-03-11T08:06:46.282Z,101188.97
2023-03-11T08:09:13.590Z,101184.19
2023-03-11T08:11:40.536Z,101180.97
2023-03-11T08:14:07.262Z,101187.59
2023-03-11T08:16:33.956Z,101184.63
2023-03-11T08:19:00.495Z,101191.41
2023-03-11T08:21:31.801Z,101200.00
2023-03-11T08:24:00.658Z,101205.06
2023-03-11T08:26:28.052Z,101210.31
2023-03-11T08:28:56.172Z,101204.81
2023-03-11T08:31:31.421Z,101214.53
2023-03-11T08:34:01.083Z,101222.44
2023-03-11T08:36:27.793Z,101224.97
2023-03-11T08:38:54.367Z,101218.59
2023-03-11T08:41:20.903Z,101216.50
2023-03-11T08:43:47.507Z,101220.91
2023-03-11T08:46:22.823Z,101212.72
2023-03-11T08:48:49.463Z,101220.59
2023-03-11T08:51:16.292Z,101220.47
2023-03-11T08:53:42.784Z,101228.38
2023-03-11T08:56:09.544Z,101234.44
2023-03-11T08:58:36.327Z,101240.66
2023-03-11T09:01:03.881Z,101238.66
2023-03-11T09:03:36.490Z,101246.56
2023-03-11T09:06:06.088Z,101246.28
2023-03-11T09:08:32.779Z,101244.47
2023-03-11T09:10:59.353Z,101254.88
2023-03-11T09:13:25.983Z,101251.25
2023-03-11T09:15:53.488Z,101257.28
2023-03-11T09:18:20.518Z,101258.97
2023-03-11T09:20:47.151Z,101257.00
2023-03-11T09:23:16.039Z,101249.81
2023-03-11T09:25:42.832Z,101253.91
2023-03-11T09:28:09.398Z,101251.06
2023-03-11T09:30:36.060Z,101251.78
2023-03-11T09:33:02.589Z,101247.13
2023-03-11T09:35:29.179Z,101256.56
2023-03-11T09:37:55.814Z,101255.34
2023-03-11T09:40:25.628Z,101255.91
2023-03-11T09:42:54.924Z,101256.47
2023-03-11T09:45:29.920Z,101250.53
2023-03-11T09:48:30.499Z,101251.97
2023-03-11T09:51:03.145Z,101254.03
2023-03-11T09:53:44.556Z,101249.13
2023-03-11T09:56:15.096Z,101253.06
2023-03-11T09:58:50.590Z,101248.94
2023-03-11T10:01:33.287Z,101246.97
2023-03-11T10:04:13.092Z,101255.56
2023-03-11T10:06:41.803Z,101260.63
2023-03-11T10:09:26.692Z,101263.03
2023-03-11T10:12:08.578Z,101265.59
2023-03-11T10:14:44.492Z,101262.59
2023-03-11T10:17:35.051Z,101260.63
2023-03-11T10:20:30.703Z,101265.84
2023-03-11T10:23:25.216Z,101267.69
2023-03-11T10:25:54.443Z,101265.72
2023-03-11T10:28:25.129Z,101265.72
2023-03-11T10:30:57.702Z,101268.38
2023-03-11T10:33:32.125Z,101263.31
2023-03-11T10:36:03.805Z,101256.09
2023-03-11T10:38:39.447Z,101258.09
2023-03-11T10:41:22.011Z,101259.78
2023-03-11T10:44:00.089Z,101252.28
2023-03-11T10:46:28.278Z,101253.81
2023-03-11T10:48:55.382Z,101247.16
2023-03-11T10:51:26.619Z,101248.56
2023-03-11T10:53:56.005Z,101251.78
2023-03-11T10:56:35.874Z,101260.41
2023-03-11T10:59:04.386Z,101259.84
2023-03-11T11:01:31.237Z,101264.59
2023-03-11T11:04:01.034Z,101269.72
2023-03-11T11:06:35.043Z,101282.53
2023-03-11T11:09:06.435Z,101261.75
2023-03-11T11:11:36.688Z,101272.91
2023-03-11T11:14:03.288Z,101272.59
2023-03-11T11:16:30.249Z,101270.59
2023-03-11T11:19:07.878Z,101270.47
2023-03-11T11:21:41.314Z,101268.47
2023-03-11T11:24:28.371Z,101271.16
2023-03-11T11:27:21.853Z,101280.06
2023-03-11T11:30:10.440Z,101282.63
2023-03-11T11:32:37.574Z,101274.38
2023-03-11T11:35:07.287Z,101281.59
2023-03-11T11:37:39.899Z,101271.88
2023-03-11T11:40:15.766Z,101264.66
2023-03-11T11:42:56.897Z,101271.88
2023-03-11T11:45:35.879Z,101272.00
2023-03-11T11:48:21.952Z,101272.88
2023-03-11T11:50:55.703Z,101278.25
2023-03-11T11:53:27.921Z,101268.47
2023-03-11T11:55:54.775Z,101274.38
2023-03-11T11:58:22.187Z,101270.88
2023-03-11T12:01:36.362Z,101267.50
2023-03-11T12:04:12.180Z,101266.34
2023-03-11T12:06:44.472Z,101264.34
2023-03-11T12:09:10.996Z,101267.88
2023-03-11T12:12:05.171Z,101268.72
2023-03-11T12:14:48.285Z,101268.28
2023-03-11T12:17:17.902Z,101263.59
2023-03-11T12:19:57.446Z,101253.72
2023-03-11T12:22:42.007Z,101254.25
2023-03-11T12:25:14.283Z,101256.78
2023-03-11T12:27:50.070Z,101254.09
2023-03-11T12:30:27.180Z,101252.88
2023-03-11T12:33:01.908Z,101255.19
2023-03-11T12:35:34.497Z,101254.25
2023-03-11T12:38:13.165Z,101265.00
2023-03-11T12:40:42.372Z,101254.50
2023-03-11T12:43:30.029Z,101253.19
2023-03-11T12:46:01.341Z,101249.75
2023-03-11T12:48:27.837Z,101250.84
2023-03-11T12:50:54.918Z,101263.69
2023-03-11T12:53:42.664Z,101261.41
2023-03-11T12:56:30.838Z,101268.72
2023-03-11T12:59:22.205Z,101266.41
2023-03-11T13:02:10.000Z,101263.25
2023-03-11T13:04:54.110Z,101259.97
2023-03-11T13:07:25.775Z,101258.66
2023-03-11T13:10:33.559Z,101254.81
2023-03-11T13:13:00.822Z,101254.22
2023-03-11T13:15:36.963Z,101260.97
2023-03-11T13:18:12.444Z,101262.56
2023-03-11T13:20:39.226Z,101258.56
2023-03-11T13:23:21.906Z,101254.84
2023-03-11T13:25:49.785Z,101251.69
2023-03-11T13:28:37.504Z,101252.53
2023-03-11T13:31:17.771Z,101256.78
2023-03-11T13:33:55.618Z,101255.59
2023-03-11T13:36:40.368Z,101252.78
2023-03-11T13:39:31.013Z,101249.91
2023-03-11T13:41:57.727Z,101257.69
2023-03-11T13:44:24.258Z,101249.91
2023-03-11T13:46:57.094Z,101259.53
2023-03-11T13:49:31.089Z,101257.69
2023-03-11T13:51:59.271Z,101263.06
2023-03-11T13:55:04.734Z,101264.06
2023-03-11T13:57:33.562Z,101259.22
2023-03-11T14:00:18.102Z,101261.22
2023-03-11T14:02:55.429Z,101254.84
2023-03-11T14:05:30.085Z,101263.59
2023-03-11T14:08:12.502Z,101258.34
2023-03-11T14:10:39.449Z,101256.38
2023-03-11T14:13:14.242Z,101263.59
2023-03-11T14:15:47.838Z,101266.28
2023-03-11T14:18:29.600Z,101268.13
2023-03-11T14:20:57.252Z,101266.28
2023-03-11T14:23:28.902Z,101268.97
2023-03-11T14:26:04.950Z,101268.97
2023-03-11T14:28:35.115Z,101263.59
2023-03-11T14:31:03.491Z,101267.31
2023-03-11T14:33:30.135Z,101274.50
2023-03-11T14:36:00.001Z,101278.19
2023-03-11T14:38:29.836Z,101270.28
2023-03-11T14:41:06.860Z,101270.28
2023-03-11T14:43:37.470Z,101269.47
2023-03-11T14:46:05.980Z,101267.75
2023-03-11T14:48:39.062Z,101261.53
2023-03-11T14:51:22.412Z,101274.13
2023-03-11T14:54:15.547Z,101268.91
2023-03-11T14:56:47.576Z,101266.22
2023-03-11T14:59:26.859Z,101277.13
2023-03-11T15:01:57.518Z,101276.44
2023-03-11T15:04:27.467Z,101278.59
2023-03-11T15:06:55.100Z,101270.81
2023-03-11T15:09:23.921Z,101272.84
2023-03-11T15:11:57.443Z,101278.69
2023-03-11T15:14:23.982Z,101267.19
2023-03-11T15:16:52.177Z,101272.88
2023-03-11T15:19:27.709Z,101265.97
2023-03-11T15:21:58.588Z,101267.94
2023-03-11T15:24:28.314Z,101271.81
2023-03-11T15:27:02.287Z,101267.41
2023-03-11T15:29:30.743Z,101260.19
2023-03-11T15:31:58.813Z,101265.72
2023-03-11T15:34:33.439Z,101266.88
2023-03-11T15:37:20.501Z,101262.66
2023-03-11T15:39:51.060Z,101260.81
2023-03-11T15:42:24.393Z,101267.19
2023-03-11T15:45:19.785Z,101268.50
2023-03-11T15:47:48.829Z,101268.34
2023-03-11T15:50:50.634Z,101264.09
2023-03-11T15:53:20.095Z,101269.47
2023-03-11T15:55:47.443Z,101266.94
2023-03-11T15:58:19.255Z,101257.19
2023-03-11T16:00:51.476Z,101259.88
2023-03-11T16:03:18.620Z,101261.56
2023-03-11T16:05:45.563Z,101267.25
2023-03-11T16:08:12.428Z,101264.56
2023-03-11T16:10:40.720Z,101265.56
2023-03-11T16:13:11.933Z,101264.88
2023-03-11T16:15:38.766Z,101272.94
2023-03-11T16:18:08.654Z,101275.22
2023-03-11T16:20:49.800Z,101266.78
2023-03-11T16:23:21.138Z,101265.94
2023-03-11T16:25:48.666Z,101266.47
2023-03-11T16:28:17.004Z,101265.94
2023-03-11T16:30:44.059Z,101271.22
2023-03-11T16:33:10.765Z,101260.44
2023-03-11T16:35:38.087Z,101260.34
2023-03-11T16:38:04.716Z,101262.09
2023-03-11T16:40:32.656Z,101260.53
2023-03-11T16:43:04.733Z,101261.63
2023-03-11T16:45:31.529Z,101266.22
2023-03-11T16:47:58.275Z,101262.06
2023-03-11T16:50:24.932Z,101265.13
2023-03-11T16:52:55.361Z,101273.41
2023-03-11T16:55:22.569Z,101272.94
2023-03-11T16:57:49.163Z,101269.78
2023-03-11T17:00:17.961Z,101270.19
2023-03-11T17:02:45.273Z,101276.94
2023-03-11T17:05:11.851Z,101266.84
2023-03-11T17:07:40.051Z,101262.00
2023-03-11T17:10:08.454Z,101260.69
2023-03-11T17:12:36.027Z,101268.44
2023-03-11T17:15:04.045Z,101270.00
2023-03-11T17:17:30.605Z,101262.75
2023-03-11T17:19:57.132Z,101272.50
2023-03-11T17:22:23.738Z,101270.50
2023-03-11T17:24:50.241Z,101270.50
2023-03-11T17:27:16.757Z,101274.06
2023-03-11T17:29:43.333Z,101278.91
2023-03-11T17:32:16.797Z,101279.53
2023-03-11T17:34:43.705Z,101275.63
2023-03-11T17:37:10.306Z,101284.19
2023-03-11T17:39:36.862Z,101284.47
2023-03-11T17:42:03.485Z,101279.41
2023-03-11T17:44:35.401Z,101289.31
2023-03-11T17:47:11.299Z,101287.94
2023-03-11T17:49:37.967Z,101288.41
2023-03-11T17:52:04.896Z,101295.41
2023-03-11T17:54:31.787Z,101290.81
2023-03-11T17:56:58.373Z,101297.78
2023-03-11T17:59:24.884Z,101292.22
2023-03-11T18:01:51.595Z,101295.66
2023-03-11T18:04:18.210Z,101305.47
2023-03-11T18:06:44.717Z,101308.75
2023-03-11T18:09:11.378Z,101310.44
2023-03-11T18:11:38.007Z,101322.44
2023-03-11T18:14:04.599Z,101319.03
2023-03-11T18:16:32.156Z,101313.00
2023-03-11T18:18:58.782Z,101315.94
2023-03-11T18:21:28.043Z,101311.78
2023-03-11T18:24:00.054Z,101318.53
2023-03-11T18:26:28.939Z,101316.56
2023-03-11T18:28:56.982Z,101309.34
2023-03-11T18:31:24.806Z,101313.88
2023-03-11T18:33:57.259Z,101315.19
2023-03-11T18:36:29.310Z,101319.19
2023-03-11T18:38:58.208Z,101316.09
2023-03-11T18:41:26.196Z,101323.63
2023-03-11T18:43:59.803Z,101324.94
2023-03-11T18:46:33.602Z,101326.94
2023-03-11T18:49:02.450Z,101322.69
2023-03-11T18:51:31.467Z,101325.97
2023-03-11T18:53:59.244Z,101327.94
2023-03-11T18:56:26.997Z,101323.88
2023-03-11T18:58:55.300Z,101316.97
2023-03-11T19:01:22.175Z,101317.94
2023-03-11T19:03:52.137Z,101317.94
2023-03-11T19:06:19.374Z,101313.28
2023-03-11T19:08:45.923Z,101316.13
2023-03-11T19:11:18.642Z,101316.25
2023-03-11T19:13:47.296Z,101312.91
2023-03-11T19:16:20.114Z,101315.72
2023-03-11T19:18:47.189Z,101324.09
2023-03-11T19:21:14.956Z,101322.72
2023-03-11T19:23:41.665Z,101319.31
2023-03-11T19:26:08.469Z,101318.63
2023-03-11T19:28:35.534Z,101307.47
2023-03-11T19:31:02.528Z,101314.00
2023-03-11T19:33:29.187Z,101312.47
2023-03-11T19:35:58.213Z,101312.06
2023-03-11T19:38:28.826Z,101311.53
2023-03-11T19:41:00.504Z,101307.56
2023-03-11T19:43:27.788Z,101315.78
2023-03-11T19:45:54.344Z,101312.56
2023-03-11T19:48:20.953Z,101313.00
2023-03-11T19:50:49.262Z,101315.41
2023-03-11T19:53:16.806Z,101312.19
2023-03-11T19:55:48.171Z,101315.31
2023-03-11T19:58:14.896Z,101317.31
2023-03-11T20:00:42.854Z,101315.91
2023-03-11T20:03:16.525Z,101318.03
2023-03-11T20:05:44.376Z,101315.63
2023-03-11T20:08:13.032Z,101319.03
2023-03-11T20:10:44.834Z,101323.13
2023-03-11T20:13:12.094Z,101316.78
2023-03-11T20:15:38.736Z,101319.88
2023-03-11T20:18:06.230Z,101312.97
2023-03-11T20:20:34.322Z,101311.13
2023-03-11T20:23:02.033Z,101311.97
2023-03-11T20:25:32.256Z,101308.56
2023-03-11T20:28:00.302Z,101312.13
2023-03-11T20:30:28.280Z,101313.94
2023-03-11T20:32:55.458Z,101312.25
2023-03-11T20:35:22.322Z,101322.00
2023-03-11T20:37:48.949Z,101314.81
2023-03-11T20:40:17.357Z,101319.31
2023-03-11T20:42:46.863Z,101312.13
2023-03-11T20:45:21.559Z,101317.50
2023-03-11T20:47:49.360Z,101321.16
2023-03-11T20:50:16.668Z,101312.25
2023-03-11T20:52:43.256Z,101307.72
2023-03-11T20:55:10.662Z,101310.41
2023-03-11T20:57:38.416Z,101314.81
2023-03-11T21:00:11.602Z,101316.63
2023-03-11T21:02:43.037Z,101308.44
2023-03-11T21:05:10.545Z,101306.59
2023-03-11T21:07:37.303Z,101307.44
2023-03-11T21:10:10.162Z,101297.53
2023-03-11T21:12:36.701Z,101309.00
2023-03-11T21:15:03.878Z,101304.31
2023-03-11T21:17:30.740Z,101302.63
2023-03-11T21:19:57.415Z,101295.41
2023-03-11T21:22:23.956Z,101293.75
2023-03-11T21:24:54.107Z,101298.09
2023-03-11T21:27:26.053Z,101299.94
2023-03-11T21:29:53.955Z,101297.25
2023-03-11T21:32:20.638Z,101295.59
2023-03-11T21:34:47.474Z,101294.56
2023-03-11T21:37:14.297Z,101288.50
2023-03-11T21:39:40.927Z,101287.66
2023-03-11T21:42:07.680Z,101294.03
2023-03-11T21:44:34.384Z,101282.44
2023-03-11T21:47:00.977Z,101290.66
2023-03-11T21:49:27.540Z,101291.63
2023-03-11T21:51:54.199Z,101287.41
2023-03-11T21:54:20.737Z,101289.38
2023-03-11T21:56:47.293Z,101286.97
2023-03-11T21:59:14.044Z,101288.97
2023-03-11T22:01:40.770Z,101283.06
2023-03-11T22:04:07.538Z,101277.97
2023-03-11T22:06:34.341Z,101280.97
2023-03-11T22:09:01.412Z,101276.88
2023-03-11T22:11:28.493Z,101279.84
2023-03-11T22:13:57.246Z,101282.09
2023-03-11T22:16:25.159Z,101285.94
2023-03-11T22:18:53.142Z,101279.16
2023-03-11T22:21:20.697Z,101285.81
2023-03-11T22:23:48.000Z,101275.34
2023-03-11T22:26:15.780Z,101277.34
2023-03-11T22:28:42.752Z,101280.44
2023-03-11T22:31:11.692Z,101282.59
2023-03-11T22:33:38.385Z,101279.34
2023-03-11T22:36:05.994Z,101270.72
2023-03-11T22:38:34.087Z,101268.31
2023-03-11T22:41:00.672Z,101264.91
2023-03-11T22:43:27.530Z,101270.59
2023-03-11T22:45:54.305Z,101262.81
2023-03-11T22:48:20.922Z,101254.06
2023-03-11T22:50:47.535Z,101264.09
2023-03-11T22:53:15.525Z,101264.38
2023-03-11T22:55:43.582Z,101271.69
2023-03-11T22:58:11.043Z,101275.66
2023-03-11T23:00:37.882Z,101266.88
2023-03-11T23:03:04.601Z,101258.16
2023-03-11T23:05:31.364Z,101257.44
2023-03-11T23:07:57.935Z,101249.81
2023-03-11T23:10:24.428Z,101249.09
2023-03-11T23:12:50.947Z,101252.78
2023-03-11T23:15:19.213Z,101251.25
2023-03-11T23:17:45.773Z,101253.91
2023-03-11T23:20:15.144Z,101243.47
2023-03-11T23:22:42.396Z,101244.47
2023-03-11T23:25:13.069Z,101240.22
2023-03-11T23:27:39.847Z,101243.16
2023-03-11T23:30:07.408Z,101232.59
2023-03-11T23:32:34.470Z,101231.03
2023-03-11T23:35:01.017Z,101225.84
2023-03-11T23:37:27.558Z,101218.91
2023-03-11T23:39:54.059Z,101224.41
2023-03-11T23:42:25.742Z,101222.84
2023-03-11T23:44:53.290Z,101221.16
2023-03-11T23:47:19.916Z,101210.72
2023-03-11T23:49:46.436Z,101212.72
2023-03-11T23:52:13.003Z,101208.47
2023-03-11T23:54:39.502Z,101204.94
2023-03-11T23:57:06.017Z,101206.06
2023-03-11T23:59:32.627Z,101202.69
